EST,Max TemperatureF,Mean TemperatureF,Min TemperatureF,Max Dew PointF,MeanDew PointF,Min DewpointF,Max Humidity, Mean Humidity, Min Humidity, Max Sea Level PressureIn, Mean Sea Level PressureIn, Min Sea Level PressureIn, Max VisibilityMiles, Mean VisibilityMiles, Min VisibilityMiles, Max Wind SpeedMPH, Mean Wind SpeedMPH, Max Gust SpeedMPH,PrecipitationIn, CloudCover, Events, WindDirDegrees
2013-2-1,30,26,22,21,12,3,80,51,32,30.27,29.95,29.84,10,10,2,21,12,36,0.00,4,Snow,286
2013-2-2,30,23,16,22,13,3,90,63,34,30.32,30.14,30.03,10,7,2,14,9,22,0.01,5,Snow,221
2013-2-3,32,26,19,25,21,18,93,82,60,30.03,29.88,29.80,10,8,1,10,3,,0.00,7,Snow,295
2013-2-4,30,24,19,25,15,8,93,64,41,30.04,29.94,29.84,10,9,2,21,11,28,0.00,5,Snow,234
2013-2-5,33,30,26,30,27,19,94,89,74,29.96,29.91,29.88,10,8,3,8,4,,0.00,8,Snow,51
2013-2-6,40,32,25,30,25,16,100,83,45,30.35,30.04,29.91,10,5,0,16,4,22,0.00,3,Fog-Snow,276
2013-2-7,35,28,21,26,17,12,79,61,45,30.48,30.40,30.27,10,10,10,12,4,,0.00,5,,34
2013-2-8,41,36,30,41,34,28,100,91,78,30.24,29.86,29.64,10,7,2,22,12,30,0.58,8,Rain-Snow,10
2013-2-9,32,27,21,30,24,7,100,83,45,30.36,29.88,29.75,10,3,1,29,15,43,0.05,6,Snow,306
2013-2-10,38,26,14,24,13,6,74,58,37,30.49,30.40,30.32,10,10,10,14,7,,0.00,2,,291
2013-2-11,54,43,32,54,45,26,100,94,76,30.29,29.86,29.65,10,8,2,17,8,25,0.28,7,Rain,236
2013-2-12,47,40,32,39,26,22,81,56,41,29.97,29.89,29.75,10,10,10,18,10,28,0.00,1,,295
2013-2-13,44,34,23,32,30,20,100,84,48,29.96,29.73,29.67,10,6,2,13,5,,0.12,7,Snow,21
2013-2-14,46,38,30,34,32,28,100,90,51,30.02,29.86,29.70,10,6,3,9,6,,0.01,5,Snow,272
2013-2-15,57,43,29,36,31,27,100,86,38,30.02,29.99,29.91,10,5,0,13,4,,0.00,1,Fog,211
2013-2-16,40,36,30,34,31,14,100,82,50,29.96,29.91,29.73,10,10,3,21,8,23,0.00,7,Snow,348
2013-2-17,32,26,20,11,5,-1,46,38,31,30.05,29.81,29.70,10,10,10,28,19,39,0.00,3,Snow,301
2013-2-18,36,27,18,12,5,0,52,41,29,30.29,30.21,30.07,10,10,10,25,16,31,0.00,0,,275
2013-2-19,50,38,26,45,37,13,100,82,47,30.19,29.82,29.70,10,9,4,25,9,31,0.23,6,Rain,233
2013-2-20,36,30,24,24,14,8,62,51,37,30.03,29.91,29.77,10,10,4,21,14,32,0.00,5,,293
2013-2-21,35,29,23,14,12,9,62,51,39,30.27,30.09,30.02,10,10,10,22,14,31,0.00,4,Snow,305
2013-2-22,37,29,21,32,25,13,94,78,54,30.40,30.30,30.25,10,10,9,9,5,,0.00,6,Rain,11
2013-2-23,46,40,33,46,39,32,100,99,93,30.25,30.02,29.78,10,5,2,18,5,23,0.19,8,Rain,51
2013-2-24,46,39,31,39,34,20,100,86,51,30.01,29.80,29.75,10,9,5,22,10,34,0.00,6,,321
2013-2-25,44,36,28,27,24,19,82,61,48,30.22,30.14,30.02,10,9,1,13,7,17,0.01,3,,311
2013-2-26,45,35,25,39,34,23,100,85,53,30.24,29.98,29.76,10,8,3,25,11,36,0.25,7,Rain,72
2013-2-27,53,47,41,52,44,36,100,93,60,29.79,29.59,29.49,10,6,1,24,15,30,0.29,8,Rain,43
2013-2-28,47,42,35,37,33,24,82,68,47,29.65,29.61,29.56,10,10,10,13,5,,0.00,7,Rain,289